createdAt,value
2023-02-24T00:01:41.453Z,1.60
2023-02-24T00:04:35.786Z,1.30
2023-02-24T00:07:21.327Z,1.25
2023-02-24T00:10:09.389Z,1.35
2023-02-24T00:12:55.187Z,1.58
2023-02-24T00:15:40.615Z,1.65
2023-02-24T00:18:26.145Z,1.80
2023-02-24T00:21:15.888Z,1.73
2023-02-24T00:24:01.665Z,1.52
2023-02-24T00:26:55.421Z,1.50
2023-02-24T00:29:42.328Z,1.60
2023-02-24T00:32:28.387Z,1.35
2023-02-24T00:35:14.690Z,1.20
2023-02-24T00:37:59.736Z,1.70
2023-02-24T00:40:45.361Z,1.42
2023-02-24T00:43:30.498Z,1.10
2023-02-24T00:46:22.087Z,1.00
2023-02-24T00:49:12.760Z,0.83
2023-02-24T00:51:58.931Z,1.20
2023-02-24T00:54:45.816Z,1.08
2023-02-24T00:57:33.218Z,1.30
2023-02-24T01:00:21.948Z,1.13
2023-02-24T01:03:07.036Z,0.90
2023-02-24T01:05:52.994Z,0.80
2023-02-24T01:08:47.741Z,0.88
2023-02-24T01:11:54.050Z,1.08
2023-02-24T01:14:40.178Z,1.02
2023-02-24T01:17:25.778Z,1.38
2023-02-24T01:20:19.038Z,0.90
2023-02-24T01:23:04.429Z,1.05
2023-02-24T01:25:50.398Z,1.00
2023-02-24T01:28:37.494Z,1.15
2023-02-24T01:31:23.840Z,1.10
2023-02-24T01:34:12.850Z,1.10
2023-02-24T01:36:58.074Z,1.00
2023-02-24T01:39:48.011Z,1.13
2023-02-24T01:42:33.457Z,0.85
2023-02-24T01:45:24.758Z,1.08
2023-02-24T01:48:12.530Z,1.20
2023-02-24T01:50:58.437Z,1.00
2023-02-24T01:53:44.071Z,1.10
2023-02-24T01:56:31.162Z,1.35
2023-02-24T01:59:16.444Z,1.27
2023-02-24T02:02:06.826Z,1.20
2023-02-24T02:05:05.843Z,0.90
2023-02-24T02:07:52.479Z,0.82
2023-02-24T02:10:40.760Z,0.77
2023-02-24T02:13:28.277Z,0.80
2023-02-24T02:16:28.807Z,0.73
2023-02-24T02:19:42.780Z,0.80
2023-02-24T02:23:06.667Z,0.88
2023-02-24T02:25:58.017Z,0.70
2023-02-24T02:29:12.546Z,1.13
2023-02-24T02:32:10.725Z,0.80
2023-02-24T02:35:23.985Z,0.80
2023-02-24T02:38:34.599Z,0.70
2023-02-24T02:41:38.172Z,0.90
2023-02-24T02:44:35.705Z,0.98
2023-02-24T02:47:30.127Z,0.70
2023-02-24T02:50:28.391Z,1.08
2023-02-24T02:53:24.548Z,0.60
2023-02-24T02:56:16.602Z,0.82
2023-02-24T02:59:03.417Z,0.70
2023-02-24T03:01:50.841Z,0.70
2023-02-24T03:04:36.401Z,0.55
2023-02-24T03:07:31.627Z,0.70
2023-02-24T03:10:27.685Z,0.68
2023-02-24T03:13:14.243Z,0.65
2023-02-24T03:16:03.353Z,0.70
2023-02-24T03:19:03.746Z,0.60
2023-02-24T03:22:01.858Z,0.70
2023-02-24T03:24:47.416Z,0.60
2023-02-24T03:27:49.772Z,0.70
2023-02-24T03:30:46.060Z,0.60
2023-02-24T03:34:11.022Z,0.73
2023-02-24T03:36:57.390Z,0.75
2023-02-24T03:39:43.130Z,0.77
2023-02-24T03:45:23.043Z,0.75
2023-02-24T03:48:09.814Z,0.60
2023-02-24T03:50:55.843Z,0.68
2023-02-24T03:54:08.930Z,0.68
2023-02-24T03:57:24.421Z,0.52
2023-02-24T04:00:36.971Z,0.60
2023-02-24T04:03:37.398Z,0.60
2023-02-24T04:06:38.212Z,0.73
2023-02-24T04:09:57.115Z,0.70
2023-02-24T04:12:57.843Z,0.75
2023-02-24T04:15:50.616Z,0.60
2023-02-24T04:18:39.317Z,0.80
2023-02-24T04:21:30.473Z,0.55
2023-02-24T04:24:21.291Z,1.15
2023-02-24T04:27:11.350Z,0.65
2023-02-24T04:30:02.019Z,0.57
2023-02-24T04:32:47.556Z,0.50
2023-02-24T04:35:33.997Z,0.95
2023-02-24T04:38:20.264Z,0.85
2023-02-24T04:41:06.894Z,0.90
2023-02-24T04:43:52.421Z,0.80
2023-02-24T04:46:38.496Z,0.70
2023-02-24T04:49:23.724Z,0.88
2023-02-24T04:52:09.589Z,0.73
2023-02-24T04:54:55.065Z,0.80
2023-02-24T04:57:40.376Z,1.10
2023-02-24T05:00:27.217Z,1.20
2023-02-24T05:03:12.987Z,0.90
2023-02-24T05:06:00.224Z,0.90
2023-02-24T05:08:46.034Z,0.80
2023-02-24T05:11:34.980Z,1.10
2023-02-24T05:14:20.962Z,1.20
2023-02-24T05:17:06.907Z,1.08
2023-02-24T05:20:10.825Z,1.48
2023-02-24T05:22:56.746Z,1.80
2023-02-24T05:25:42.949Z,1.23
2023-02-24T05:28:31.612Z,1.42
2023-02-24T05:31:26.555Z,1.58
2023-02-24T05:34:17.188Z,1.80
2023-02-24T05:37:10.433Z,1.70
2023-02-24T05:40:01.694Z,1.80
2023-02-24T05:42:46.794Z,2.10
2023-02-24T05:45:33.259Z,1.80
2023-02-24T05:48:18.825Z,1.80
2023-02-24T05:51:08.128Z,2.30
2023-02-24T05:53:56.365Z,2.13
2023-02-24T05:56:44.920Z,2.05
2023-02-24T05:59:33.017Z,2.17
2023-02-24T06:02:27.499Z,1.75
2023-02-24T06:05:25.274Z,1.90
2023-02-24T06:08:13.345Z,2.00
2023-02-24T06:10:59.270Z,1.95
2023-02-24T06:13:49.193Z,2.03
2023-02-24T06:16:36.219Z,2.13
2023-02-24T06:19:21.286Z,1.73
2023-02-24T06:22:10.871Z,1.90
2023-02-24T06:24:56.727Z,2.03
2023-02-24T06:27:43.229Z,1.50
2023-02-24T06:30:28.995Z,2.28
2023-02-24T06:33:14.482Z,2.53
2023-02-24T06:36:00.775Z,1.85
2023-02-24T06:38:46.327Z,1.50
2023-02-24T06:41:32.907Z,2.50
2023-02-24T06:44:18.878Z,1.70
2023-02-24T06:47:06.474Z,2.10
2023-02-24T06:49:51.933Z,1.77
2023-02-24T06:52:37.486Z,1.70
2023-02-24T06:55:25.730Z,1.92
2023-02-24T06:58:17.252Z,1.67
2023-02-24T07:01:04.482Z,2.30
2023-02-24T07:04:02.067Z,1.77
2023-02-24T07:06:52.428Z,1.75
2023-02-24T07:09:37.871Z,1.85
2023-02-24T07:12:24.316Z,2.08
2023-02-24T07:15:09.753Z,1.83
2023-02-24T07:17:54.921Z,1.40
2023-02-24T07:20:43.710Z,1.50
2023-02-24T07:23:29.304Z,2.00
2023-02-24T07:26:17.050Z,1.65
2023-02-24T07:29:06.293Z,1.80
2023-02-24T07:31:55.016Z,2.08
2023-02-24T07:34:40.897Z,1.67
2023-02-24T07:37:31.477Z,1.70
2023-02-24T07:40:17.732Z,2.17
2023-02-24T07:43:06.379Z,1.77
2023-02-24T07:45:52.715Z,2.03
2023-02-24T07:48:39.928Z,1.70
2023-02-24T07:51:27.469Z,2.08
2023-02-24T07:54:15.690Z,2.17
2023-02-24T07:57:01.001Z,1.80
2023-02-24T07:59:47.207Z,2.50
2023-02-24T08:02:34.425Z,1.80
2023-02-24T08:05:19.693Z,2.30
2023-02-24T08:08:05.001Z,2.30
2023-02-24T08:10:50.405Z,2.20
2023-02-24T08:13:37.368Z,1.75
2023-02-24T08:16:23.397Z,1.60
2023-02-24T08:19:14.288Z,2.40
2023-02-24T08:22:19.359Z,1.90
2023-02-24T08:25:08.120Z,1.70
2023-02-24T08:28:12.762Z,2.20
2023-02-24T08:30:59.014Z,2.08
2023-02-24T08:33:44.284Z,1.90
2023-02-24T08:36:29.596Z,2.22
2023-02-24T08:39:15.009Z,1.98
2023-02-24T08:42:00.353Z,2.20
2023-02-24T08:44:46.119Z,2.45
2023-02-24T08:47:35.903Z,2.25
2023-02-24T08:50:21.627Z,2.72
2023-02-24T08:53:10.532Z,2.55
2023-02-24T08:55:55.549Z,1.95
2023-02-24T08:58:49.302Z,2.70
2023-02-24T09:01:37.558Z,2.72
2023-02-24T09:04:22.701Z,2.20
2023-02-24T09:07:15.296Z,2.60
2023-02-24T09:10:28.471Z,2.72
2023-02-24T09:13:13.769Z,2.47
2023-02-24T09:16:00.849Z,2.63
2023-02-24T09:19:06.550Z,2.40
2023-02-24T09:21:53.147Z,2.53
2023-02-24T09:24:38.407Z,2.75
2023-02-24T09:27:29.214Z,2.80
2023-02-24T09:30:33.203Z,2.80
2023-02-24T09:33:28.605Z,3.28
2023-02-24T09:36:19.939Z,3.67
2023-02-24T09:39:05.359Z,3.42
2023-02-24T09:42:08.030Z,4.18
2023-02-24T09:44:56.286Z,3.78
2023-02-24T09:47:57.107Z,4.00
2023-02-24T09:51:04.507Z,4.32
2023-02-24T09:53:53.387Z,4.20
2023-02-24T09:57:00.943Z,4.13
2023-02-24T10:00:25.730Z,4.88
2023-02-24T10:03:20.912Z,4.38
2023-02-24T10:06:14.772Z,5.53
2023-02-24T10:09:11.837Z,5.43
2023-02-24T10:12:04.482Z,5.70
2023-02-24T10:15:32.329Z,7.00
2023-02-24T10:18:30.036Z,5.38
2023-02-24T10:21:48.271Z,6.40
2023-02-24T10:24:49.220Z,6.22
2023-02-24T10:28:05.792Z,7.20
2023-02-24T10:31:10.918Z,7.63
2023-02-24T10:34:01.457Z,8.10
2023-02-24T10:36:50.269Z,7.72
2023-02-24T10:39:35.797Z,7.35
2023-02-24T10:42:31.480Z,6.80
2023-02-24T10:45:23.626Z,5.35
2023-02-24T10:48:11.610Z,4.97
2023-02-24T10:51:08.301Z,4.43
2023-02-24T10:54:25.090Z,4.30
2023-02-24T10:57:18.588Z,4.40
2023-02-24T11:00:35.292Z,4.28
2023-02-24T11:03:40.982Z,4.15
2023-02-24T11:06:52.737Z,3.72
2023-02-24T11:09:52.579Z,3.95
2023-02-24T11:13:09.903Z,4.00
2023-02-24T11:16:14.701Z,3.30
2023-02-24T11:19:00.226Z,3.28
2023-02-24T11:21:47.306Z,3.58
2023-02-24T11:24:32.860Z,3.92
2023-02-24T11:27:23.255Z,3.80
2023-02-24T11:30:20.952Z,4.65
2023-02-24T11:33:26.160Z,3.45
2023-02-24T11:36:39.085Z,4.00
2023-02-24T11:42:26.049Z,3.55
2023-02-24T11:45:33.653Z,3.83
2023-02-24T11:48:23.064Z,4.07
2023-02-24T11:51:19.994Z,4.35
2023-02-24T11:54:10.238Z,3.35
2023-02-24T11:56:59.334Z,3.92
2023-02-24T11:59:58.571Z,5.57
2023-02-24T12:02:59.279Z,3.45
2023-02-24T12:05:49.035Z,4.10
2023-02-24T12:08:41.536Z,4.75
2023-02-24T12:11:45.234Z,4.28
2023-02-24T12:14:38.208Z,4.15
2023-02-24T12:20:41.486Z,3.53
2023-02-24T12:23:37.631Z,4.30
2023-02-24T12:26:47.818Z,3.78
2023-02-24T12:29:50.765Z,3.45
2023-02-24T12:33:05.505Z,3.88
2023-02-24T12:36:09.528Z,3.90
2023-02-24T12:39:23.368Z,3.22
2023-02-24T12:42:34.739Z,2.60
2023-02-24T12:45:53.775Z,2.83
2023-02-24T12:49:36.717Z,3.42
2023-02-24T12:52:50.596Z,3.83
2023-02-24T12:55:41.246Z,1.67
2023-02-24T12:58:33.152Z,2.05
2023-02-24T13:01:29.061Z,1.90
2023-02-24T13:04:29.468Z,1.45
2023-02-24T13:08:03.814Z,1.80
2023-02-24T13:11:03.357Z,1.30
2023-02-24T13:14:27.512Z,1.70
2023-02-24T13:17:18.717Z,1.75
2023-02-24T13:20:14.330Z,2.25
2023-02-24T13:23:02.335Z,2.92
2023-02-24T13:25:52.776Z,2.80
2023-02-24T13:28:38.464Z,3.45
2023-02-24T13:31:26.206Z,2.50
2023-02-24T13:34:33.874Z,2.88
2023-02-24T13:37:34.423Z,2.72
2023-02-24T13:40:22.240Z,2.80
2023-02-24T13:43:27.823Z,3.60
2023-02-24T13:46:22.573Z,3.65
2023-02-24T13:49:27.151Z,3.72
2023-02-24T13:52:32.621Z,3.60
2023-02-24T13:55:45.723Z,3.20
2023-02-24T13:58:33.989Z,3.85
2023-02-24T14:01:21.611Z,2.85
2023-02-24T14:04:18.621Z,3.10
2023-02-24T14:07:09.675Z,3.10
2023-02-24T14:09:59.528Z,2.83
2023-02-24T14:12:46.562Z,3.42
2023-02-24T14:15:33.521Z,1.95
2023-02-24T14:18:25.533Z,1.65
2023-02-24T14:21:21.162Z,1.40
2023-02-24T14:24:13.397Z,1.55
2023-02-24T14:26:59.461Z,1.20
2023-02-24T14:29:44.780Z,1.23
2023-02-24T14:32:32.455Z,1.23
2023-02-24T14:35:26.093Z,1.30
2023-02-24T14:38:38.720Z,1.02
2023-02-24T14:41:27.465Z,1.20
2023-02-24T14:44:28.076Z,1.20
2023-02-24T14:47:15.747Z,1.17
2023-02-24T14:50:03.449Z,1.50
2023-02-24T14:52:53.645Z,1.02
2023-02-24T14:55:44.977Z,1.55
2023-02-24T14:58:38.729Z,1.20
2023-02-24T15:01:36.676Z,0.90
2023-02-24T15:04:43.763Z,1.17
2023-02-24T15:07:32.794Z,1.00
2023-02-24T15:10:23.081Z,1.35
2023-02-24T15:13:18.345Z,1.52
2023-02-24T15:16:14.398Z,1.42
2023-02-24T15:19:01.515Z,2.08
2023-02-24T15:21:47.223Z,1.50
2023-02-24T15:24:34.813Z,1.65
2023-02-24T15:27:26.879Z,2.03
2023-02-24T15:30:49.232Z,1.45
2023-02-24T15:33:43.553Z,1.70
2023-02-24T15:36:33.446Z,1.30
2023-02-24T15:39:23.479Z,1.17
2023-02-24T15:42:30.507Z,2.25
2023-02-24T15:45:32.013Z,1.48
2023-02-24T15:48:21.076Z,1.33
2023-02-24T15:51:06.285Z,1.40
2023-02-24T15:53:51.762Z,1.45
2023-02-24T15:56:37.587Z,1.17
2023-02-24T15:59:22.668Z,2.10
2023-02-24T16:02:18.194Z,2.47
2023-02-24T16:05:03.408Z,1.98
2023-02-24T16:07:49.567Z,2.00
2023-02-24T16:10:35.030Z,1.92
2023-02-24T16:13:23.881Z,1.92
2023-02-24T16:16:12.633Z,1.70
2023-02-24T16:18:58.233Z,1.67
2023-02-24T16:21:44.293Z,3.42
2023-02-24T16:24:29.987Z,2.45
2023-02-24T16:27:20.854Z,2.35
2023-02-24T16:30:07.850Z,2.88
2023-02-24T16:32:53.682Z,1.90
2023-02-24T16:35:42.143Z,2.20
2023-02-24T16:38:27.525Z,2.55
2023-02-24T16:41:13.309Z,2.70
2023-02-24T16:43:58.913Z,2.83
2023-02-24T16:46:45.192Z,2.10
2023-02-24T16:49:30.538Z,2.47
2023-02-24T16:52:19.080Z,2.45
2023-02-24T16:55:04.425Z,2.70
2023-02-24T16:57:49.921Z,2.55
2023-02-24T17:00:36.230Z,2.10
2023-02-24T17:03:44.407Z,2.45
2023-02-24T17:06:29.524Z,2.47
2023-02-24T17:09:15.706Z,2.55
2023-02-24T17:12:01.155Z,3.08
2023-02-24T17:14:46.675Z,2.67
2023-02-24T17:17:31.773Z,2.92
2023-02-24T17:20:19.359Z,2.88
2023-02-24T17:23:05.518Z,2.15
2023-02-24T17:25:54.861Z,3.22
2023-02-24T17:28:40.294Z,2.30
2023-02-24T17:31:28.412Z,2.42
2023-02-24T17:34:14.158Z,2.55
2023-02-24T17:36:59.607Z,2.90
2023-02-24T17:39:44.996Z,2.80
2023-02-24T17:42:30.404Z,2.60
2023-02-24T17:45:16.113Z,3.25
2023-02-24T17:48:01.794Z,2.92
2023-02-24T17:50:47.469Z,3.85
2023-02-24T17:53:33.003Z,3.20
2023-02-24T17:56:18.081Z,3.35
2023-02-24T17:59:03.509Z,2.78
2023-02-24T18:01:49.041Z,3.33
2023-02-24T18:04:34.519Z,3.08
2023-02-24T18:07:21.184Z,3.13
2023-02-24T18:10:07.379Z,3.15
2023-02-24T18:12:52.580Z,3.40
2023-02-24T18:15:39.065Z,3.20
2023-02-24T18:18:25.837Z,3.15
2023-02-24T18:21:11.307Z,3.10
2023-02-24T18:23:57.015Z,3.28
2023-02-24T18:26:42.174Z,3.70
2023-02-24T18:29:28.735Z,3.65
2023-02-24T18:32:13.914Z,3.67
2023-02-24T18:34:59.178Z,3.22
2023-02-24T18:37:44.651Z,3.45
2023-02-24T18:40:30.162Z,3.30
2023-02-24T18:43:15.634Z,3.40
2023-02-24T18:46:02.885Z,2.15
2023-02-24T18:48:50.371Z,2.78
2023-02-24T18:51:37.008Z,2.88
2023-02-24T18:54:22.206Z,3.20
2023-02-24T18:57:07.580Z,2.80
2023-02-24T18:59:52.991Z,2.45
2023-02-24T19:02:38.337Z,3.15
2023-02-24T19:05:24.911Z,2.85
2023-02-24T19:08:10.180Z,2.53
2023-02-24T19:10:55.450Z,3.10
2023-02-24T19:13:41.118Z,3.75
2023-02-24T19:16:26.657Z,2.53
2023-02-24T19:19:14.540Z,2.25
2023-02-24T19:22:00.185Z,2.45
2023-02-24T19:24:45.643Z,2.28
2023-02-24T19:27:31.018Z,2.53
2023-02-24T19:30:16.708Z,2.28
2023-02-24T19:33:01.934Z,3.03
2023-02-24T19:35:48.642Z,2.60
2023-02-24T19:38:34.098Z,3.05
2023-02-24T19:41:19.899Z,1.67
2023-02-24T19:44:05.449Z,2.45
2023-02-24T19:46:50.919Z,1.73
2023-02-24T19:49:36.299Z,1.63
2023-02-24T19:52:21.695Z,1.50
2023-02-24T19:55:10.181Z,2.63
2023-02-24T19:57:55.534Z,1.60
2023-02-24T20:00:40.696Z,1.73
2023-02-24T20:03:28.287Z,2.03
2023-02-24T20:06:36.821Z,1.50
2023-02-24T20:09:22.164Z,1.65
2023-02-24T20:12:07.422Z,1.90
2023-02-24T20:14:52.822Z,2.10
2023-02-24T20:17:38.134Z,2.05
2023-02-24T20:20:23.694Z,1.83
2023-02-24T20:23:09.043Z,2.95
2023-02-24T20:25:56.316Z,2.30
2023-02-24T20:28:42.790Z,2.20
2023-02-24T20:31:28.505Z,2.38
2023-02-24T20:34:16.494Z,2.35
2023-02-24T20:37:01.907Z,3.05
2023-02-24T20:39:47.076Z,1.25
2023-02-24T20:42:32.439Z,1.17
2023-02-24T20:45:17.797Z,1.30
2023-02-24T20:48:03.895Z,1.70
2023-02-24T20:50:49.620Z,1.15
2023-02-24T20:53:54.268Z,1.42
2023-02-24T20:56:43.716Z,1.30
2023-02-24T20:59:29.238Z,1.08
2023-02-24T21:02:14.443Z,2.38
2023-02-24T21:05:00.045Z,1.25
2023-02-24T21:07:45.972Z,1.50
2023-02-24T21:10:31.341Z,1.23
2023-02-24T21:13:20.115Z,1.60
2023-02-24T21:16:06.859Z,1.40
2023-02-24T21:18:53.154Z,1.60
2023-02-24T21:21:38.531Z,1.58
2023-02-24T21:24:25.369Z,1.20
2023-02-24T21:27:11.895Z,1.63
2023-02-24T21:29:56.976Z,1.80
2023-02-24T21:32:42.838Z,2.05
2023-02-24T21:35:28.670Z,2.50
2023-02-24T21:38:14.086Z,2.85
2023-02-24T21:41:03.797Z,2.38
2023-02-24T21:43:54.736Z,2.10
2023-02-24T21:46:45.339Z,1.92
2023-02-24T21:49:30.716Z,1.83
2023-02-24T21:52:16.146Z,1.85
2023-02-24T21:55:02.197Z,2.28
2023-02-24T21:57:47.885Z,2.55
2023-02-24T22:00:33.152Z,2.45
2023-02-24T22:03:18.370Z,2.92
2023-02-24T22:06:03.903Z,2.38
2023-02-24T22:08:48.909Z,2.25
2023-02-24T22:11:38.646Z,2.70
2023-02-24T22:14:23.734Z,1.90
2023-02-24T22:17:09.098Z,3.10
2023-02-24T22:19:56.146Z,3.05
2023-02-24T22:22:42.560Z,2.30
2023-02-24T22:25:28.116Z,3.28
2023-02-24T22:28:13.615Z,2.85
2023-02-24T22:30:59.121Z,2.72
2023-02-24T22:33:46.068Z,3.25
2023-02-24T22:36:33.918Z,2.35
2023-02-24T22:39:19.108Z,2.55
2023-02-24T22:42:05.051Z,2.70
2023-02-24T22:44:50.046Z,1.98
2023-02-24T22:47:35.565Z,2.05
2023-02-24T22:50:23.306Z,2.65
2023-02-24T22:53:08.788Z,2.20
2023-02-24T22:55:54.964Z,2.13
2023-02-24T22:58:40.730Z,2.42
2023-02-24T23:01:29.251Z,2.10
2023-02-24T23:04:16.638Z,2.00
2023-02-24T23:07:02.618Z,2.38
2023-02-24T23:09:52.730Z,1.98
2023-02-24T23:12:38.362Z,1.80
2023-02-24T23:15:23.927Z,1.60
2023-02-24T23:18:09.370Z,1.60
2023-02-24T23:21:03.354Z,1.73
2023-02-24T23:23:49.971Z,1.60
2023-02-24T23:26:42.279Z,1.27
2023-02-24T23:29:27.720Z,1.50
2023-02-24T23:32:13.500Z,1.30
2023-02-24T23:34:59.249Z,1.10
2023-02-24T23:37:44.898Z,1.77
2023-02-24T23:40:41.273Z,1.40
2023-02-24T23:43:33.717Z,1.45
2023-02-24T23:46:19.235Z,1.70
2023-02-24T23:49:05.615Z,1.80
2023-02-24T23:51:51.298Z,1.38
2023-02-24T23:54:36.851Z,1.40
2023-02-24T23:57:22.458Z,1.33
